createdAt,value
2023-04-16T00:00:27.674Z,9.28
2023-04-16T00:02:27.636Z,9.19
2023-04-16T00:03:27.544Z,9.24
2023-04-16T00:04:27.397Z,9.25
2023-04-16T00:05:27.261Z,9.25
2023-04-16T00:06:28.569Z,9.28
2023-04-16T00:07:27.063Z,9.25
2023-04-16T00:08:26.976Z,9.25
2023-04-16T00:09:26.906Z,9.27
2023-04-16T00:10:26.818Z,9.25
2023-04-16T00:11:26.737Z,9.29
2023-04-16T00:12:26.671Z,9.28
2023-04-16T00:13:26.573Z,9.25
2023-04-16T00:14:26.491Z,9.29
2023-04-16T00:15:26.408Z,9.28
2023-04-16T00:16:26.339Z,9.29
2023-04-16T00:17:26.306Z,9.16
2023-04-16T00:18:26.177Z,9.20
2023-04-16T00:19:26.081Z,9.17
2023-04-16T00:20:26.003Z,9.13
2023-04-16T00:21:25.918Z,9.27
2023-04-16T00:22:25.834Z,9.25
2023-04-16T00:23:25.755Z,9.27
2023-04-16T00:24:25.671Z,9.16
2023-04-16T00:25:25.592Z,9.16
2023-04-16T00:26:25.510Z,9.14
2023-04-16T00:27:25.425Z,9.28
2023-04-16T00:28:25.459Z,9.20
2023-04-16T00:29:25.268Z,9.22
2023-04-16T00:30:25.187Z,9.29
2023-04-16T00:31:25.176Z,9.22
2023-04-16T00:32:25.054Z,9.24
2023-04-16T00:33:24.936Z,9.28
2023-04-16T00:34:24.851Z,9.24
2023-04-16T00:35:25.125Z,9.22
2023-04-16T00:36:24.686Z,9.28
2023-04-16T00:37:24.609Z,9.28
2023-04-16T00:38:24.524Z,9.32
2023-04-16T00:39:24.445Z,9.22
2023-04-16T00:40:24.358Z,9.34
2023-04-16T00:41:24.277Z,9.28
2023-04-16T00:42:24.248Z,9.25
2023-04-16T00:43:24.118Z,9.25
2023-04-16T00:44:24.054Z,9.28
2023-04-16T00:45:23.958Z,9.34
2023-04-16T00:46:23.986Z,9.31
2023-04-16T00:47:23.861Z,9.22
2023-04-16T00:48:23.905Z,9.24
2023-04-16T00:49:23.624Z,9.25
2023-04-16T00:50:23.568Z,9.35
2023-04-16T00:51:23.481Z,9.34
2023-04-16T00:52:23.378Z,9.20
2023-04-16T00:53:23.312Z,9.19
2023-04-16T00:54:23.212Z,9.32
2023-04-16T00:55:23.134Z,9.22
2023-04-16T00:56:23.053Z,9.25
2023-04-16T00:59:07.308Z,9.24
2023-04-16T01:00:07.073Z,9.24
2023-04-16T01:01:07.010Z,9.22
2023-04-16T01:02:07.061Z,9.19
2023-04-16T01:03:06.901Z,9.25
2023-04-16T01:04:06.812Z,9.28
2023-04-16T01:05:06.644Z,9.19
2023-04-16T01:06:06.561Z,9.34
2023-04-16T01:07:06.774Z,9.19
2023-04-16T01:08:06.391Z,9.20
2023-04-16T01:09:06.324Z,9.31
2023-04-16T01:10:06.433Z,9.29
2023-04-16T01:11:06.160Z,9.28
2023-04-16T01:12:06.073Z,9.22
2023-04-16T01:13:05.985Z,9.22
2023-04-16T01:14:05.942Z,9.28
2023-04-16T01:15:05.822Z,9.27
2023-04-16T01:16:05.799Z,9.31
2023-04-16T01:17:05.659Z,9.20
2023-04-16T01:18:05.618Z,9.25
2023-04-16T01:19:05.494Z,9.31
2023-04-16T01:20:05.413Z,9.24
2023-04-16T01:21:05.331Z,9.24
2023-04-16T01:22:05.255Z,9.29
2023-04-16T01:23:05.167Z,9.27
2023-04-16T01:24:05.090Z,9.28
2023-04-16T01:25:05.008Z,9.16
2023-04-16T01:26:04.925Z,9.24
2023-04-16T01:27:04.841Z,9.22
2023-04-16T01:28:04.762Z,9.25
2023-04-16T01:29:04.676Z,9.27
2023-04-16T01:30:04.602Z,9.25
2023-04-16T01:31:04.544Z,9.29
2023-04-16T01:32:04.461Z,9.34
2023-04-16T01:33:04.354Z,9.31
2023-04-16T01:34:04.279Z,9.32
2023-04-16T01:35:04.248Z,9.34
2023-04-16T01:36:04.106Z,9.32
2023-04-16T01:37:04.039Z,9.34
2023-04-16T01:38:03.945Z,9.31
2023-04-16T01:39:03.860Z,9.29
2023-04-16T01:40:03.778Z,9.27
2023-04-16T01:41:03.717Z,9.28
2023-04-16T01:42:03.622Z,9.24
2023-04-16T01:43:03.533Z,9.28
2023-04-16T01:44:03.451Z,9.24
2023-04-16T01:45:03.368Z,9.24
2023-04-16T01:46:03.291Z,9.20
2023-04-16T01:47:03.273Z,9.22
2023-04-16T01:48:03.155Z,9.22
2023-04-16T01:49:03.057Z,9.24
2023-04-16T01:50:03.022Z,9.28
2023-04-16T01:51:02.880Z,9.29
2023-04-16T01:52:02.798Z,9.27
2023-04-16T01:53:02.719Z,9.20
2023-04-16T01:54:02.635Z,9.20
2023-04-16T01:55:02.550Z,9.14
2023-04-16T01:56:02.472Z,9.16
2023-04-16T01:57:02.404Z,9.22
2023-04-16T01:58:02.455Z,9.14
2023-04-16T01:59:02.239Z,9.09
2023-04-16T02:00:02.292Z,9.09
2023-04-16T02:01:02.388Z,9.13
2023-04-16T02:02:02.227Z,9.17
2023-04-16T02:03:02.055Z,9.16
2023-04-16T02:04:01.913Z,9.19
2023-04-16T02:05:01.802Z,9.20
2023-04-16T02:06:01.665Z,9.27
2023-04-16T02:07:01.572Z,9.29
2023-04-16T02:08:01.490Z,9.25
2023-04-16T02:09:01.408Z,9.19
2023-04-16T02:10:01.331Z,9.24
2023-04-16T02:11:01.236Z,9.31
2023-04-16T02:12:01.157Z,9.20
2023-04-16T02:13:01.075Z,9.16
2023-04-16T02:14:00.997Z,9.25
2023-04-16T02:15:00.917Z,9.25
2023-04-16T02:16:00.842Z,9.20
2023-04-16T02:17:01.043Z,9.20
2023-04-16T02:18:00.731Z,9.22
2023-04-16T02:19:00.580Z,9.32
2023-04-16T02:20:00.524Z,9.24
2023-04-16T02:21:00.428Z,9.34
2023-04-16T02:22:00.335Z,9.25
2023-04-16T02:23:00.251Z,9.22
2023-04-16T02:24:00.170Z,9.27
2023-04-16T02:25:00.107Z,9.27
2023-04-16T02:26:00.008Z,9.16
2023-04-16T02:26:59.923Z,9.20
2023-04-16T02:27:59.859Z,9.27
2023-04-16T02:28:59.759Z,9.27
2023-04-16T02:29:59.682Z,9.28
2023-04-16T02:30:59.594Z,9.22
2023-04-16T02:31:59.560Z,9.14
2023-04-16T02:32:59.482Z,9.14
2023-04-16T02:33:59.355Z,9.19
2023-04-16T02:34:59.266Z,9.19
2023-04-16T02:35:59.217Z,9.19
2023-04-16T02:36:59.102Z,9.17
2023-04-16T02:37:59.038Z,9.19
2023-04-16T02:38:58.989Z,9.24
2023-04-16T02:39:58.860Z,9.24
2023-04-16T02:40:58.793Z,9.25
2023-04-16T02:41:58.702Z,9.14
2023-04-16T02:42:58.623Z,9.22
2023-04-16T02:43:58.530Z,9.24
2023-04-16T02:44:58.447Z,9.22
2023-04-16T02:45:58.416Z,9.24
2023-04-16T02:46:58.281Z,9.27
2023-04-16T02:47:58.290Z,9.31
2023-04-16T02:48:58.122Z,9.32
2023-04-16T02:49:58.035Z,9.22
2023-04-16T02:50:57.962Z,9.29
2023-04-16T02:51:57.897Z,9.25
2023-04-16T02:52:57.792Z,9.24
2023-04-16T02:53:57.712Z,9.16
2023-04-16T02:54:57.636Z,9.22
2023-04-16T02:55:57.551Z,9.19
2023-04-16T02:56:57.465Z,9.25
2023-04-16T02:57:57.382Z,9.13
2023-04-16T02:58:57.313Z,9.19
2023-04-16T02:59:57.222Z,9.29
2023-04-16T03:00:57.193Z,9.17
2023-04-16T03:01:57.108Z,9.17
2023-04-16T03:02:57.051Z,9.19
2023-04-16T03:03:56.921Z,9.25
2023-04-16T03:04:56.824Z,9.25
2023-04-16T03:05:56.725Z,9.28
2023-04-16T03:06:56.642Z,9.28
2023-04-16T03:07:56.704Z,9.28
2023-04-16T03:08:56.481Z,9.25
2023-04-16T03:09:56.398Z,9.28
2023-04-16T03:10:56.319Z,9.25
2023-04-16T03:11:56.237Z,9.22
2023-04-16T03:12:56.160Z,9.28
2023-04-16T03:13:56.071Z,9.28
2023-04-16T03:14:56.012Z,9.24
2023-04-16T03:15:55.923Z,9.25
2023-04-16T03:16:55.826Z,9.24
2023-04-16T03:17:55.818Z,9.27
2023-04-16T03:18:55.660Z,9.24
2023-04-16T03:19:55.582Z,9.24
2023-04-16T03:20:55.497Z,9.22
2023-04-16T03:21:55.421Z,9.22
2023-04-16T03:22:55.336Z,9.24
2023-04-16T03:23:55.274Z,9.27
2023-04-16T03:24:55.172Z,9.22
2023-04-16T03:25:55.100Z,9.22
2023-04-16T03:26:55.008Z,9.29
2023-04-16T03:27:54.927Z,9.24
2023-04-16T03:28:54.845Z,9.14
2023-04-16T03:29:54.770Z,9.28
2023-04-16T03:30:54.716Z,9.28
2023-04-16T03:31:54.605Z,9.20
2023-04-16T03:32:54.528Z,9.19
2023-04-16T03:33:54.439Z,9.29
2023-04-16T03:34:54.358Z,9.31
2023-04-16T03:35:54.269Z,9.32
2023-04-16T03:36:54.188Z,9.27
2023-04-16T03:37:54.108Z,9.28
2023-04-16T03:38:54.035Z,9.20
2023-04-16T03:39:53.966Z,9.25
2023-04-16T03:40:54.064Z,9.31
2023-04-16T03:41:53.784Z,9.29
2023-04-16T03:42:53.698Z,9.27
2023-04-16T03:43:53.617Z,9.27
2023-04-16T03:44:53.536Z,9.16
2023-04-16T03:45:53.506Z,9.24
2023-04-16T03:46:53.675Z,9.24
2023-04-16T03:47:53.317Z,9.25
2023-04-16T03:48:53.205Z,9.19
2023-04-16T03:49:53.126Z,9.24
2023-04-16T03:50:53.044Z,9.22
2023-04-16T03:51:52.964Z,9.25
2023-04-16T03:52:52.881Z,9.19
2023-04-16T03:53:52.799Z,9.22
2023-04-16T03:54:52.726Z,9.27
2023-04-16T03:55:52.664Z,9.28
2023-04-16T03:56:52.560Z,9.34
2023-04-16T03:57:52.477Z,9.28
2023-04-16T03:58:52.397Z,9.29
2023-04-16T03:59:52.319Z,9.20
2023-04-16T04:00:52.233Z,9.31
2023-04-16T04:01:52.233Z,9.22
2023-04-16T04:02:52.235Z,9.22
2023-04-16T04:03:52.144Z,9.27
2023-04-16T04:04:52.094Z,9.25
2023-04-16T04:05:51.819Z,9.14
2023-04-16T04:06:51.734Z,9.25
2023-04-16T04:07:51.653Z,9.24
2023-04-16T04:08:51.604Z,9.22
2023-04-16T04:09:51.493Z,9.22
2023-04-16T04:10:51.422Z,9.24
2023-04-16T04:11:51.346Z,9.27
2023-04-16T04:12:51.243Z,9.24
2023-04-16T04:13:51.465Z,9.24
2023-04-16T04:14:51.083Z,9.27
2023-04-16T04:15:51.021Z,9.31
2023-04-16T04:16:51.170Z,9.31
2023-04-16T04:17:50.930Z,9.19
2023-04-16T04:18:50.759Z,9.28
2023-04-16T04:20:00.539Z,9.29
2023-04-16T04:20:50.602Z,9.22
2023-04-16T04:21:50.513Z,9.20
2023-04-16T04:22:50.677Z,9.20
2023-04-16T04:23:50.350Z,9.19
2023-04-16T04:24:50.263Z,9.22
2023-04-16T04:25:50.227Z,9.17
2023-04-16T04:26:50.099Z,9.14
2023-04-16T04:27:50.067Z,9.16
2023-04-16T04:28:49.938Z,9.16
2023-04-16T04:29:49.851Z,9.19
2023-04-16T04:30:49.784Z,9.24
2023-04-16T04:31:49.743Z,9.28
2023-04-16T04:32:49.620Z,9.24
2023-04-16T04:33:49.548Z,9.25
2023-04-16T04:34:49.448Z,9.20
2023-04-16T04:35:49.379Z,9.19
2023-04-16T04:36:49.285Z,9.22
2023-04-16T04:37:49.214Z,9.32
2023-04-16T04:38:49.371Z,9.29
2023-04-16T04:39:49.042Z,9.27
2023-04-16T04:40:48.999Z,9.28
2023-04-16T04:41:48.869Z,9.16
2023-04-16T04:42:48.786Z,9.29
2023-04-16T04:43:48.961Z,9.17
2023-04-16T04:44:48.638Z,9.29
2023-04-16T04:45:48.583Z,9.27
2023-04-16T04:46:48.460Z,9.22
2023-04-16T04:47:48.452Z,9.28
2023-04-16T04:48:48.297Z,9.16
2023-04-16T04:49:48.221Z,9.22
2023-04-16T04:50:48.143Z,9.20
2023-04-16T04:51:48.052Z,9.24
2023-04-16T04:52:47.970Z,9.27
2023-04-16T04:53:47.899Z,9.24
2023-04-16T04:54:47.809Z,9.34
2023-04-16T04:55:50.872Z,9.24
2023-04-16T04:56:47.655Z,9.28
2023-04-16T04:57:47.570Z,9.24
2023-04-16T04:58:47.487Z,9.19
2023-04-16T04:59:47.513Z,9.24
2023-04-16T05:00:47.352Z,9.22
2023-04-16T05:01:47.241Z,9.28
2023-04-16T05:02:47.270Z,9.27
2023-04-16T05:03:47.176Z,9.28
2023-04-16T05:04:47.018Z,9.28
2023-04-16T05:05:46.918Z,9.29
2023-04-16T05:06:46.824Z,9.24
2023-04-16T05:07:46.745Z,9.25
2023-04-16T05:08:46.864Z,9.28
2023-04-16T05:09:46.583Z,9.24
2023-04-16T05:10:46.502Z,9.27
2023-04-16T05:11:46.419Z,9.20
2023-04-16T05:12:48.747Z,9.38
2023-04-16T05:13:46.254Z,9.25
2023-04-16T05:14:46.170Z,9.32
2023-04-16T05:15:46.218Z,9.24
2023-04-16T05:16:46.048Z,9.29
2023-04-16T05:17:45.966Z,9.34
2023-04-16T05:18:46.154Z,9.29
2023-04-16T05:19:45.766Z,9.40
2023-04-16T05:20:45.685Z,9.38
2023-04-16T05:21:45.594Z,9.32
2023-04-16T05:22:45.524Z,9.35
2023-04-16T05:23:45.444Z,9.34
2023-04-16T05:24:45.353Z,9.35
2023-04-16T05:25:45.423Z,9.38
2023-04-16T05:26:45.199Z,9.40
2023-04-16T05:27:45.110Z,9.37
2023-04-16T05:28:45.026Z,9.35
2023-04-16T05:29:44.944Z,9.38
2023-04-16T05:30:44.920Z,9.32
2023-04-16T05:31:44.849Z,9.40
2023-04-16T05:32:44.762Z,9.37
2023-04-16T05:33:44.619Z,9.40
2023-04-16T05:34:44.532Z,9.43
2023-04-16T05:35:44.463Z,9.43
2023-04-16T05:36:44.376Z,9.38
2023-04-16T05:37:44.294Z,9.37
2023-04-16T05:38:44.209Z,9.38
2023-04-16T05:39:44.124Z,9.43
2023-04-16T05:40:44.050Z,9.45
2023-04-16T05:41:43.960Z,9.40
2023-04-16T05:42:43.882Z,9.47
2023-04-16T05:43:43.897Z,9.40
2023-04-16T05:44:43.717Z,9.45
2023-04-16T05:45:43.630Z,9.47
2023-04-16T05:46:43.549Z,9.40
2023-04-16T05:47:43.515Z,9.46
2023-04-16T05:48:43.388Z,9.40
2023-04-16T05:49:43.308Z,9.42
2023-04-16T05:50:43.275Z,9.43
2023-04-16T05:51:43.200Z,9.50
2023-04-16T05:52:43.064Z,9.35
2023-04-16T05:53:42.991Z,9.45
2023-04-16T05:54:42.896Z,9.43
2023-04-16T05:55:42.819Z,9.43
2023-04-16T05:56:42.737Z,9.47
2023-04-16T05:57:42.649Z,9.42
2023-04-16T05:58:42.570Z,9.38
2023-04-16T05:59:42.485Z,9.46
2023-04-16T06:00:42.511Z,9.42
2023-04-16T06:01:42.321Z,9.42
2023-04-16T06:02:42.426Z,9.46
2023-04-16T06:03:42.306Z,9.53
2023-04-16T06:04:42.381Z,9.45
2023-04-16T06:05:42.064Z,9.42
2023-04-16T06:06:42.071Z,9.40
2023-04-16T06:07:42.181Z,9.37
2023-04-16T06:08:41.752Z,9.46
2023-04-16T06:09:41.688Z,9.40
2023-04-16T06:10:41.587Z,9.45
2023-04-16T06:11:41.507Z,9.53
2023-04-16T06:12:41.425Z,9.50
2023-04-16T06:13:41.648Z,9.49
2023-04-16T06:14:41.269Z,9.49
2023-04-16T06:15:41.219Z,9.38
2023-04-16T06:16:41.099Z,9.46
2023-04-16T06:17:41.104Z,9.40
2023-04-16T06:18:40.942Z,9.37
2023-04-16T06:19:40.968Z,9.38
2023-04-16T06:20:40.771Z,9.38
2023-04-16T06:21:40.694Z,9.42
2023-04-16T06:22:40.609Z,9.38
2023-04-16T06:23:40.523Z,9.35
2023-04-16T06:24:40.447Z,9.35
2023-04-16T06:25:40.365Z,9.40
2023-04-16T06:26:40.279Z,9.42
2023-04-16T06:27:40.199Z,9.40
2023-04-16T06:28:40.117Z,9.37
2023-04-16T06:29:41.548Z,9.46
2023-04-16T06:30:39.954Z,9.38
2023-04-16T06:31:39.903Z,9.37
2023-04-16T06:32:39.904Z,9.35
2023-04-16T06:33:39.705Z,9.38
2023-04-16T06:34:39.622Z,9.46
2023-04-16T06:35:39.567Z,9.42
2023-04-16T06:36:39.465Z,9.42
2023-04-16T06:37:39.386Z,9.50
2023-04-16T06:38:39.294Z,9.55
2023-04-16T06:39:39.213Z,9.43
2023-04-16T06:40:39.138Z,9.47
2023-04-16T06:41:39.396Z,9.46
2023-04-16T06:42:38.977Z,9.47
2023-04-16T06:43:38.888Z,9.52
2023-04-16T06:44:38.809Z,9.46
2023-04-16T06:45:38.980Z,9.42
2023-04-16T06:46:38.667Z,9.37
2023-04-16T06:47:38.707Z,9.45
2023-04-16T06:48:38.480Z,9.38
2023-04-16T06:49:38.394Z,9.42
2023-04-16T06:50:38.312Z,9.50
2023-04-16T06:51:38.276Z,9.42
2023-04-16T06:52:38.151Z,9.43
2023-04-16T06:53:38.070Z,9.47
2023-04-16T06:54:37.982Z,9.38
2023-04-16T06:55:37.916Z,9.45
2023-04-16T06:56:37.831Z,9.37
2023-04-16T06:57:37.861Z,9.42
2023-04-16T06:58:37.660Z,9.49
2023-04-16T06:59:37.576Z,9.50
2023-04-16T07:00:37.533Z,9.40
2023-04-16T07:01:37.411Z,9.47
2023-04-16T07:02:37.431Z,9.55
2023-04-16T07:03:37.457Z,9.49
2023-04-16T07:04:37.173Z,9.53
2023-04-16T07:05:37.103Z,9.56
2023-04-16T07:06:37.007Z,9.53
2023-04-16T07:07:36.940Z,9.40
2023-04-16T07:08:36.847Z,9.45
2023-04-16T07:09:36.759Z,9.47
2023-04-16T07:10:36.679Z,9.53
2023-04-16T07:11:36.596Z,9.45
2023-04-16T07:12:36.514Z,9.45
2023-04-16T07:13:36.431Z,9.45
2023-04-16T07:14:36.451Z,9.43
2023-04-16T07:15:36.270Z,9.46
2023-04-16T07:16:36.230Z,9.50
2023-04-16T07:17:36.149Z,9.52
2023-04-16T07:18:36.030Z,9.45
2023-04-16T07:19:35.943Z,9.42
2023-04-16T07:20:35.863Z,9.50
2023-04-16T07:21:35.780Z,9.52
2023-04-16T07:22:35.704Z,9.40
2023-04-16T07:23:35.635Z,9.40
2023-04-16T07:24:35.539Z,9.46
2023-04-16T07:25:35.459Z,9.42
2023-04-16T07:26:35.368Z,9.45
2023-04-16T07:27:35.283Z,9.38
2023-04-16T07:28:35.220Z,9.45
2023-04-16T07:29:35.128Z,9.45
2023-04-16T07:30:35.039Z,9.45
2023-04-16T07:31:35.005Z,9.37
2023-04-16T07:32:34.889Z,9.34
2023-04-16T07:33:34.796Z,9.35
2023-04-16T07:34:34.762Z,9.45
2023-04-16T07:35:34.629Z,9.45
2023-04-16T07:36:34.548Z,9.46
2023-04-16T07:37:34.476Z,9.45
2023-04-16T07:38:34.387Z,9.40
2023-04-16T07:39:34.318Z,9.42
2023-04-16T07:40:34.215Z,9.45
2023-04-16T07:41:34.149Z,9.37
2023-04-16T07:42:34.060Z,9.46
2023-04-16T07:43:34.321Z,9.45
2023-04-16T07:44:33.895Z,9.45
2023-04-16T07:45:33.859Z,9.45
2023-04-16T07:46:45.593Z,9.47
2023-04-16T07:47:33.659Z,9.56
2023-04-16T07:48:33.563Z,9.53
2023-04-16T07:49:33.502Z,9.42
2023-04-16T07:50:33.402Z,9.49
2023-04-16T07:51:33.322Z,9.53
2023-04-16T07:52:33.237Z,9.43
2023-04-16T07:53:33.153Z,9.43
2023-04-16T07:54:33.070Z,9.37
2023-04-16T07:55:33.004Z,9.50
2023-04-16T07:56:32.909Z,9.42
2023-04-16T07:57:32.825Z,9.42
2023-04-16T07:58:32.742Z,9.42
2023-04-16T07:59:32.664Z,9.45
2023-04-16T08:00:32.579Z,9.53
2023-04-16T08:01:32.498Z,9.40
2023-04-16T08:02:32.554Z,9.53
2023-04-16T08:03:32.567Z,9.52
2023-04-16T08:04:32.449Z,9.42
2023-04-16T08:05:32.184Z,9.47
2023-04-16T08:06:32.088Z,9.50
2023-04-16T08:07:34.400Z,9.50
2023-04-16T08:08:31.924Z,9.45
2023-04-16T08:09:31.842Z,9.52
2023-04-16T08:10:31.811Z,9.63
2023-04-16T08:11:31.801Z,9.49
2023-04-16T08:12:31.607Z,9.46
2023-04-16T08:13:33.510Z,9.46
2023-04-16T08:14:31.784Z,9.43
2023-04-16T08:15:31.387Z,9.45
2023-04-16T08:16:31.281Z,9.47
2023-04-16T08:17:31.224Z,9.60
2023-04-16T08:18:31.117Z,9.45
2023-04-16T08:19:31.027Z,9.49
2023-04-16T08:20:30.952Z,9.43
2023-04-16T08:21:30.861Z,9.49
2023-04-16T08:22:30.780Z,9.50
2023-04-16T08:23:30.700Z,9.53
2023-04-16T08:24:30.619Z,9.45
2023-04-16T08:25:30.541Z,9.43
2023-04-16T08:26:30.465Z,9.45
2023-04-16T08:27:30.399Z,9.38
2023-04-16T08:28:30.293Z,9.52
2023-04-16T08:29:30.216Z,9.52
2023-04-16T08:30:30.478Z,9.49
2023-04-16T08:31:30.113Z,9.52
2023-04-16T08:32:30.000Z,9.45
2023-04-16T08:33:30.146Z,9.40
2023-04-16T08:34:29.800Z,9.43
2023-04-16T08:35:29.734Z,9.46
2023-04-16T08:36:29.635Z,9.37
2023-04-16T08:37:29.556Z,9.40
2023-04-16T08:38:29.476Z,9.46
2023-04-16T08:39:29.390Z,9.43
2023-04-16T08:40:29.317Z,9.47
2023-04-16T08:41:29.231Z,9.52
2023-04-16T08:42:29.148Z,9.42
2023-04-16T08:43:29.088Z,9.52
2023-04-16T08:44:28.984Z,9.38
2023-04-16T08:45:29.101Z,9.49
2023-04-16T08:46:28.884Z,9.47
2023-04-16T08:47:28.778Z,9.47
2023-04-16T08:48:28.660Z,9.47
2023-04-16T08:49:28.571Z,9.56
2023-04-16T08:50:28.691Z,9.45
2023-04-16T08:51:28.654Z,9.46
2023-04-16T08:52:28.324Z,9.43
2023-04-16T08:53:28.244Z,9.38
2023-04-16T08:54:28.162Z,9.43
2023-04-16T08:55:28.078Z,9.58
2023-04-16T08:56:28.006Z,9.50
2023-04-16T08:57:27.920Z,9.55
2023-04-16T08:58:27.832Z,9.60
2023-04-16T08:59:27.769Z,9.60
2023-04-16T09:00:27.681Z,9.63
2023-04-16T09:01:27.608Z,9.42
2023-04-16T09:02:27.805Z,9.45
2023-04-16T09:03:27.575Z,9.47
2023-04-16T09:04:27.434Z,9.43
2023-04-16T09:05:27.255Z,9.47
2023-04-16T09:06:27.176Z,9.42
2023-04-16T09:07:27.201Z,9.46
2023-04-16T09:08:27.016Z,9.42
2023-04-16T09:09:26.926Z,9.40
2023-04-16T09:10:26.909Z,9.50
2023-04-16T09:11:26.762Z,9.45
2023-04-16T09:12:26.696Z,9.56
2023-04-16T09:13:26.602Z,9.58
2023-04-16T09:14:26.525Z,9.56
2023-04-16T09:15:26.455Z,9.56
2023-04-16T09:16:26.456Z,9.50
2023-04-16T09:17:26.311Z,9.60
2023-04-16T09:18:26.188Z,9.60
2023-04-16T09:19:26.108Z,9.61
2023-04-16T09:20:26.028Z,9.63
2023-04-16T09:21:25.948Z,9.60
2023-04-16T09:22:25.865Z,9.56
2023-04-16T09:23:26.130Z,9.60
2023-04-16T09:24:25.698Z,9.56
2023-04-16T09:25:25.620Z,9.55
2023-04-16T09:26:25.533Z,9.61
2023-04-16T09:27:26.078Z,9.74
2023-04-16T09:28:25.370Z,9.71
2023-04-16T09:29:25.299Z,9.71
2023-04-16T09:30:25.220Z,9.71
2023-04-16T09:31:25.150Z,9.64
2023-04-16T09:32:25.070Z,9.58
2023-04-16T09:33:24.966Z,9.52
2023-04-16T09:34:24.887Z,9.56
2023-04-16T09:35:24.906Z,9.50
2023-04-16T09:36:24.715Z,9.53
2023-04-16T09:37:24.634Z,9.67
2023-04-16T09:38:24.552Z,9.68
2023-04-16T09:39:24.469Z,9.65
2023-04-16T09:40:24.388Z,9.70
2023-04-16T09:41:24.315Z,9.72
2023-04-16T09:42:24.226Z,9.72
2023-04-16T09:43:24.146Z,9.75
2023-04-16T09:44:24.060Z,9.68
2023-04-16T09:45:23.991Z,9.72
2023-04-16T09:46:24.015Z,9.74
2023-04-16T09:47:23.940Z,9.83
2023-04-16T09:48:23.890Z,9.70
2023-04-16T09:49:24.156Z,9.71
2023-04-16T09:50:23.568Z,9.71
2023-04-16T09:51:23.489Z,9.79
2023-04-16T09:52:23.415Z,9.71
2023-04-16T09:53:23.325Z,9.71
2023-04-16T09:54:23.244Z,9.75
2023-04-16T09:55:23.181Z,9.79
2023-04-16T09:56:23.083Z,9.83
2023-04-16T09:57:23.004Z,9.83
2023-04-16T09:58:22.918Z,9.85
2023-04-16T09:59:22.839Z,9.80
2023-04-16T10:02:02.834Z,9.82
2023-04-16T10:02:55.695Z,9.89
2023-04-16T10:03:55.687Z,9.88
2023-04-16T10:04:55.608Z,9.92
2023-04-16T10:05:55.388Z,9.93
2023-04-16T10:06:55.307Z,9.80
2023-04-16T10:07:55.224Z,9.89
2023-04-16T10:08:55.143Z,9.80
2023-04-16T10:09:55.061Z,9.79
2023-04-16T10:10:54.980Z,9.83
2023-04-16T10:11:54.896Z,9.88
2023-04-16T10:12:54.818Z,9.93
2023-04-16T10:13:54.742Z,9.97
2023-04-16T10:14:54.657Z,9.90
2023-04-16T10:15:54.582Z,9.93
2023-04-16T10:16:54.549Z,9.98
2023-04-16T10:17:54.425Z,9.96
2023-04-16T10:18:54.693Z,9.96
2023-04-16T10:19:54.245Z,9.97
2023-04-16T10:20:54.189Z,9.85
2023-04-16T10:21:54.085Z,9.90
2023-04-16T10:22:54.208Z,9.97
2023-04-16T10:23:53.925Z,9.93
2023-04-16T10:24:53.838Z,10.00
2023-04-16T10:25:55.134Z,10.00
2023-04-16T10:26:53.678Z,10.00
2023-04-16T10:27:53.594Z,10.01
2023-04-16T10:28:53.514Z,9.98
2023-04-16T10:29:53.442Z,10.01
2023-04-16T10:30:53.374Z,10.06
2023-04-16T10:31:53.272Z,10.13
2023-04-16T10:32:53.261Z,10.11
2023-04-16T10:33:53.109Z,10.01
2023-04-16T10:34:53.050Z,10.01
2023-04-16T10:36:06.754Z,10.01
2023-04-16T10:36:52.897Z,10.03
2023-04-16T10:37:52.777Z,10.00
2023-04-16T10:38:52.750Z,10.13
2023-04-16T10:39:52.667Z,10.06
2023-04-16T10:40:52.535Z,10.13
2023-04-16T10:41:52.458Z,10.11
2023-04-16T10:42:52.383Z,10.23
2023-04-16T10:43:52.305Z,10.15
2023-04-16T10:44:52.211Z,10.34
2023-04-16T10:45:52.498Z,10.28
2023-04-16T10:46:52.079Z,10.23
2023-04-16T10:47:52.203Z,10.33
2023-04-16T10:48:51.885Z,10.39
2023-04-16T10:49:51.810Z,10.31
2023-04-16T10:50:52.221Z,10.29
2023-04-16T10:51:51.640Z,10.23
2023-04-16T10:52:51.561Z,10.25
2023-04-16T10:53:51.479Z,10.19
2023-04-16T10:54:51.403Z,10.23
2023-04-16T10:55:51.325Z,10.31
2023-04-16T10:56:51.234Z,10.26
2023-04-16T10:57:51.157Z,10.25
2023-04-16T10:58:51.074Z,10.28
2023-04-16T10:59:50.994Z,10.22
2023-04-16T11:00:50.912Z,10.25
2023-04-16T11:01:50.948Z,10.31
2023-04-16T11:02:50.850Z,10.21
2023-04-16T11:03:50.915Z,10.22
2023-04-16T11:04:50.728Z,10.21
2023-04-16T11:05:50.557Z,10.22
2023-04-16T11:06:50.443Z,10.25
2023-04-16T11:07:50.343Z,10.23
2023-04-16T11:08:54.998Z,10.31
2023-04-16T11:09:50.208Z,10.37
2023-04-16T11:10:50.094Z,10.33
2023-04-16T11:11:50.016Z,10.33
2023-04-16T11:12:49.933Z,10.26
2023-04-16T11:13:49.855Z,10.31
2023-04-16T11:14:49.776Z,10.36
2023-04-16T11:15:49.726Z,10.36
2023-04-16T11:16:49.814Z,10.31
2023-04-16T11:17:49.549Z,10.29
2023-04-16T11:18:51.282Z,10.36
2023-04-16T11:19:49.369Z,10.33
2023-04-16T11:20:49.289Z,10.44
2023-04-16T11:21:49.204Z,10.41
2023-04-16T11:22:49.188Z,10.41
2023-04-16T11:23:49.045Z,10.34
2023-04-16T11:24:48.966Z,10.49
2023-04-16T11:25:48.883Z,10.41
2023-04-16T11:26:49.142Z,10.40
2023-04-16T11:27:48.720Z,10.43
2023-04-16T11:28:48.640Z,10.55
2023-04-16T11:29:48.562Z,10.46
2023-04-16T11:30:48.479Z,10.46
2023-04-16T11:31:48.462Z,10.39
2023-04-16T11:32:48.340Z,10.43
2023-04-16T11:33:48.237Z,10.49
2023-04-16T11:34:48.153Z,10.47
2023-04-16T11:35:48.074Z,10.56
2023-04-16T11:36:48.068Z,10.56
2023-04-16T11:37:47.912Z,10.59
2023-04-16T11:38:47.855Z,10.65
2023-04-16T11:39:47.754Z,10.63
2023-04-16T11:40:47.674Z,10.65
2023-04-16T11:41:47.595Z,10.71
2023-04-16T11:42:47.510Z,10.77
2023-04-16T11:43:47.431Z,10.78
2023-04-16T11:44:47.351Z,10.83
2023-04-16T11:45:47.268Z,10.84
2023-04-16T11:46:47.248Z,10.85
2023-04-16T11:47:47.176Z,10.83
2023-04-16T11:48:47.060Z,10.77
2023-04-16T11:49:46.947Z,10.75
2023-04-16T11:50:46.867Z,10.67
2023-04-16T11:51:46.810Z,10.77
2023-04-16T11:52:46.754Z,10.71
2023-04-16T11:53:46.630Z,10.67
2023-04-16T11:54:46.573Z,10.71
2023-04-16T11:55:46.467Z,10.69
2023-04-16T11:56:46.387Z,10.71
2023-04-16T11:57:46.305Z,10.71
2023-04-16T11:58:46.222Z,10.71
2023-04-16T12:00:02.140Z,10.71
2023-04-16T12:00:46.059Z,10.87
2023-04-16T12:01:45.991Z,10.91
2023-04-16T12:02:46.106Z,10.78
2023-04-16T12:03:46.357Z,10.84
2023-04-16T12:04:45.968Z,10.84
2023-04-16T12:05:45.657Z,10.77
2023-04-16T12:06:45.626Z,10.77
2023-04-16T12:07:45.500Z,10.80
2023-04-16T12:11:11.071Z,10.83
2023-04-16T12:12:10.970Z,10.99
2023-04-16T12:13:10.892Z,10.99
2023-04-16T12:14:10.811Z,10.98
2023-04-16T12:15:58.207Z,11.00
2023-04-16T12:16:58.286Z,10.93
2023-04-16T12:17:58.100Z,11.00
2023-04-16T12:18:58.018Z,10.92
2023-04-16T12:19:57.903Z,10.88
2023-04-16T12:20:57.813Z,10.95
2023-04-16T12:21:57.926Z,10.95
2023-04-16T12:22:57.669Z,10.93
2023-04-16T12:23:57.570Z,10.92
2023-04-16T12:24:57.488Z,10.96
2023-04-16T12:25:57.407Z,10.95
2023-04-16T12:26:57.364Z,10.88
2023-04-16T12:27:57.247Z,10.98
2023-04-16T12:28:57.166Z,10.95
2023-04-16T12:29:57.085Z,10.91
2023-04-16T12:30:57.051Z,10.95
2023-04-16T12:31:56.935Z,10.95
2023-04-16T12:32:59.125Z,10.95
2023-04-16T12:33:56.762Z,10.95
2023-04-16T12:34:56.685Z,11.03
2023-04-16T12:35:57.114Z,10.96
2023-04-16T12:36:56.523Z,10.96
2023-04-16T12:37:56.439Z,10.96
2023-04-16T12:38:56.361Z,10.92
2023-04-16T12:39:56.288Z,11.00
2023-04-16T12:40:56.402Z,10.98
2023-04-16T12:41:56.117Z,10.92
2023-04-16T12:42:56.065Z,11.00
2023-04-16T12:43:55.957Z,10.96
2023-04-16T12:44:55.878Z,10.93
2023-04-16T12:45:55.869Z,10.81
2023-04-16T12:46:55.720Z,10.93
2023-04-16T12:47:55.681Z,10.78
2023-04-16T12:48:55.553Z,10.96
2023-04-16T12:49:55.479Z,10.80
2023-04-16T12:50:55.390Z,10.85
2023-04-16T12:51:55.313Z,10.85
2023-04-16T12:52:55.232Z,10.81
2023-04-16T12:53:55.159Z,10.84
2023-04-16T12:54:55.086Z,10.78
2023-04-16T12:55:54.999Z,10.73
2023-04-16T12:56:54.906Z,10.78
2023-04-16T12:57:54.836Z,10.85
2023-04-16T12:58:54.770Z,10.83
2023-04-16T12:59:54.662Z,10.87
2023-04-16T13:00:54.782Z,10.83
2023-04-16T13:01:54.559Z,10.95
2023-04-16T13:02:54.506Z,10.87
2023-04-16T13:03:54.550Z,10.84
2023-04-16T13:04:54.262Z,10.83
2023-04-16T13:05:54.176Z,11.00
2023-04-16T13:06:54.107Z,10.88
2023-04-16T13:07:54.017Z,10.87
2023-04-16T13:08:53.936Z,10.80
2023-04-16T13:09:53.862Z,10.83
2023-04-16T13:10:53.776Z,10.81
2023-04-16T13:11:53.692Z,10.95
2023-04-16T13:12:53.617Z,10.87
2023-04-16T13:13:53.530Z,10.95
2023-04-16T13:14:53.470Z,10.84
2023-04-16T13:15:53.476Z,10.77
2023-04-16T13:16:53.300Z,10.99
2023-04-16T13:17:53.274Z,10.93
2023-04-16T13:18:53.146Z,11.03